createdAt,value
2022-10-04T00:01:45.013Z,44.22
2022-10-04T00:04:42.014Z,43.72
2022-10-04T00:07:11.280Z,43.90
2022-10-04T00:09:55.868Z,43.20
2022-10-04T00:12:27.238Z,46.67
2022-10-04T00:14:57.498Z,41.92
2022-10-04T00:17:27.276Z,41.10
2022-10-04T00:19:55.297Z,38.92
2022-10-04T00:22:28.822Z,42.03
2022-10-04T00:25:07.480Z,39.08
2022-10-04T00:27:38.845Z,38.05
2022-10-04T00:30:05.250Z,40.08
2022-10-04T00:32:31.596Z,37.00
2022-10-04T00:35:00.211Z,39.03
2022-10-04T00:37:27.740Z,34.90
2022-10-04T00:40:26.288Z,37.47
2022-10-04T00:42:58.706Z,39.05
2022-10-04T00:45:41.312Z,33.92
2022-10-04T00:48:33.208Z,33.38
2022-10-04T00:51:07.136Z,32.85
2022-10-04T00:53:53.016Z,34.50
2022-10-04T00:56:37.214Z,37.80
2022-10-04T00:59:09.679Z,30.80
2022-10-04T01:01:37.873Z,37.33
2022-10-04T01:04:12.753Z,32.05
2022-10-04T01:06:41.724Z,32.38
2022-10-04T01:09:10.413Z,30.60
2022-10-04T01:11:50.657Z,31.63
2022-10-04T01:14:33.501Z,32.00
2022-10-04T01:16:59.990Z,27.98
2022-10-04T01:19:31.195Z,28.55
2022-10-04T01:24:34.032Z,28.77
2022-10-04T01:27:00.880Z,28.73
2022-10-04T01:29:29.872Z,31.63
2022-10-04T01:32:01.005Z,31.10
2022-10-04T01:36:57.845Z,31.67
2022-10-04T01:39:26.205Z,30.00
2022-10-04T01:42:05.110Z,30.80
2022-10-04T01:44:37.422Z,33.60
2022-10-04T01:47:09.762Z,31.00
2022-10-04T01:49:39.232Z,31.60
2022-10-04T01:52:10.696Z,35.17
2022-10-04T01:54:43.404Z,33.33
2022-10-04T01:57:27.578Z,35.00
2022-10-04T02:00:02.002Z,29.60
2022-10-04T02:02:35.466Z,28.85
2022-10-04T02:05:06.337Z,35.25
2022-10-04T02:07:34.833Z,27.27
2022-10-04T02:10:05.479Z,30.88
2022-10-04T02:12:34.040Z,32.85
2022-10-04T02:15:04.181Z,30.83
2022-10-04T02:17:33.772Z,32.53
2022-10-04T02:20:02.846Z,31.65
2022-10-04T02:22:30.437Z,30.70
2022-10-04T02:24:58.027Z,35.22
2022-10-04T02:27:31.603Z,36.75
2022-10-04T02:30:03.385Z,33.13
2022-10-04T02:32:51.275Z,30.00
2022-10-04T02:35:19.783Z,33.28
2022-10-04T02:37:50.718Z,31.75
2022-10-04T02:40:21.649Z,31.23
2022-10-04T02:43:11.221Z,28.58
2022-10-04T02:46:22.105Z,30.75
2022-10-04T02:48:58.831Z,32.83
2022-10-04T02:51:38.629Z,29.95
2022-10-04T02:54:25.049Z,30.17
2022-10-04T02:56:55.316Z,31.90
2022-10-04T02:59:22.516Z,29.47
2022-10-04T03:01:53.414Z,29.80
2022-10-04T03:04:26.822Z,32.33
2022-10-04T03:06:54.977Z,32.80
2022-10-04T03:09:27.423Z,30.63
2022-10-04T03:11:56.433Z,38.30
2022-10-04T03:14:26.637Z,32.95
2022-10-04T03:16:57.445Z,29.73
2022-10-04T03:19:26.862Z,32.45
2022-10-04T03:21:57.937Z,36.85
2022-10-04T03:24:30.166Z,27.77
2022-10-04T03:26:59.423Z,28.90
2022-10-04T03:29:30.230Z,30.60
2022-10-04T03:31:58.121Z,28.50
2022-10-04T03:34:46.689Z,29.13
2022-10-04T03:37:16.488Z,32.53
2022-10-04T03:39:49.192Z,32.65
2022-10-04T03:42:15.795Z,28.50
2022-10-04T03:44:47.326Z,27.58
2022-10-04T03:47:20.692Z,29.55
2022-10-04T03:49:51.030Z,30.00
2022-10-04T03:52:25.381Z,44.00
2022-10-04T03:54:55.128Z,31.55
2022-10-04T03:57:22.634Z,29.38
2022-10-04T03:59:50.269Z,27.23
2022-10-04T04:02:30.258Z,33.25
2022-10-04T04:05:21.316Z,28.00
2022-10-04T04:08:00.758Z,28.80
2022-10-04T04:10:33.979Z,26.98
2022-10-04T04:13:15.349Z,25.02
2022-10-04T04:15:43.345Z,32.95
2022-10-04T04:18:17.485Z,28.70
2022-10-04T04:20:44.593Z,25.98
2022-10-04T04:23:11.790Z,34.75
2022-10-04T04:25:41.180Z,26.23
2022-10-04T04:28:30.002Z,28.60
2022-10-04T04:31:09.250Z,27.17
2022-10-04T04:33:51.414Z,29.95
2022-10-04T04:36:17.900Z,24.20
2022-10-04T04:39:02.860Z,27.65
2022-10-04T04:41:33.763Z,23.88
2022-10-04T04:44:00.349Z,26.05
2022-10-04T04:46:29.044Z,26.30
2022-10-04T04:49:02.550Z,26.77
2022-10-04T04:51:31.585Z,24.80
2022-10-04T04:54:01.718Z,27.10
2022-10-04T04:56:30.544Z,25.80
2022-10-04T04:58:59.676Z,28.75
2022-10-04T05:01:44.668Z,24.73
2022-10-04T05:04:14.143Z,24.85
2022-10-04T05:06:43.672Z,22.38
2022-10-04T05:09:31.632Z,28.00
2022-10-04T05:12:18.074Z,29.88
2022-10-04T05:14:50.628Z,28.70
2022-10-04T05:17:24.293Z,26.65
2022-10-04T05:19:52.537Z,27.10
2022-10-04T05:22:23.132Z,30.55
2022-10-04T05:24:54.257Z,28.52
2022-10-04T05:30:10.239Z,25.25
2022-10-04T05:33:13.308Z,31.63
2022-10-04T05:36:11.798Z,29.23
2022-10-04T05:38:50.619Z,26.02
2022-10-04T05:41:33.346Z,35.65
2022-10-04T05:44:02.361Z,31.85
2022-10-04T05:46:31.157Z,30.20
2022-10-04T05:49:11.395Z,28.70
2022-10-04T05:52:27.734Z,29.40
2022-10-04T05:55:12.243Z,30.30
2022-10-04T05:58:00.477Z,30.20
2022-10-04T06:00:49.178Z,29.90
2022-10-04T06:03:30.676Z,28.65
2022-10-04T06:06:02.355Z,30.02
2022-10-04T06:08:54.300Z,29.92
2022-10-04T06:11:49.733Z,26.67
2022-10-04T06:15:03.733Z,21.25
2022-10-04T06:17:51.265Z,25.20
2022-10-04T06:21:12.067Z,20.83
2022-10-04T06:23:47.761Z,26.77
2022-10-04T06:26:21.635Z,24.83
2022-10-04T06:28:56.632Z,25.05
2022-10-04T06:31:25.917Z,22.85
2022-10-04T06:34:22.309Z,30.75
2022-10-04T06:36:48.665Z,24.80
2022-10-04T06:39:24.081Z,25.40
2022-10-04T06:42:33.849Z,26.08
2022-10-04T06:45:30.797Z,28.00
2022-10-04T06:48:23.224Z,24.30
2022-10-04T06:50:54.793Z,27.98
2022-10-04T06:53:51.362Z,25.23
2022-10-04T06:56:23.789Z,27.85
2022-10-04T06:59:28.602Z,30.92
2022-10-04T07:02:04.060Z,30.05
2022-10-04T07:05:06.475Z,31.13
2022-10-04T07:07:36.629Z,32.75
2022-10-04T07:10:05.554Z,32.42
2022-10-04T07:12:40.978Z,35.00
2022-10-04T07:15:19.555Z,31.75
2022-10-04T07:17:48.913Z,33.22
2022-10-04T07:20:22.764Z,40.22
2022-10-04T07:23:14.387Z,35.30
2022-10-04T07:25:51.976Z,33.78
2022-10-04T07:28:43.999Z,31.23
2022-10-04T07:31:27.265Z,37.00
2022-10-04T07:34:00.024Z,34.13
2022-10-04T07:36:39.819Z,33.60
2022-10-04T07:39:52.638Z,30.85
2022-10-04T07:42:25.752Z,32.83
2022-10-04T07:45:08.665Z,34.00
2022-10-04T07:47:35.236Z,38.97
2022-10-04T07:50:25.029Z,36.92
2022-10-04T07:53:09.188Z,41.20
2022-10-04T07:55:47.604Z,38.92
2022-10-04T07:58:16.706Z,38.70
2022-10-04T08:01:01.825Z,45.05
2022-10-04T08:04:00.067Z,38.17
2022-10-04T08:06:44.147Z,39.65
2022-10-04T08:09:23.317Z,37.80
2022-10-04T08:12:17.040Z,36.03
2022-10-04T08:15:12.272Z,37.95
2022-10-04T08:17:56.067Z,38.20
2022-10-04T08:20:32.621Z,32.00
2022-10-04T08:23:24.834Z,34.78
2022-10-04T08:26:12.691Z,34.42
2022-10-04T08:29:09.523Z,32.22
2022-10-04T08:32:13.201Z,39.95
2022-10-04T08:35:16.453Z,34.47
2022-10-04T08:37:54.819Z,35.58
2022-10-04T08:40:47.341Z,36.53
2022-10-04T08:43:30.604Z,35.80
2022-10-04T08:46:28.317Z,34.05
2022-10-04T08:49:38.302Z,36.88
2022-10-04T08:52:30.981Z,36.67
2022-10-04T08:55:21.024Z,46.63
2022-10-04T08:58:01.440Z,35.40
2022-10-04T09:00:46.866Z,42.00
2022-10-04T09:03:51.102Z,37.53
2022-10-04T09:06:38.191Z,38.05
2022-10-04T09:09:35.738Z,42.00
2022-10-04T09:12:37.504Z,36.50
2022-10-04T09:15:31.196Z,47.53
2022-10-04T09:18:12.976Z,39.72
2022-10-04T09:20:48.327Z,42.78
2022-10-04T09:23:23.800Z,37.85
2022-10-04T09:26:08.386Z,42.88
2022-10-04T09:29:22.417Z,61.50
2022-10-04T09:32:16.565Z,32.40
2022-10-04T09:35:24.213Z,37.83
2022-10-04T09:38:18.158Z,37.38
2022-10-04T09:40:58.466Z,35.88
2022-10-04T09:43:35.948Z,35.40
2022-10-04T09:46:23.185Z,41.63
2022-10-04T09:49:32.682Z,52.45
2022-10-04T09:52:16.177Z,33.30
2022-10-04T09:55:19.843Z,31.70
2022-10-04T09:58:22.917Z,33.25
2022-10-04T10:01:13.956Z,38.22
2022-10-04T10:04:08.766Z,34.28
2022-10-04T10:06:41.360Z,38.97
2022-10-04T10:09:18.370Z,35.33
2022-10-04T10:12:18.417Z,36.70
2022-10-04T10:15:17.630Z,38.75
2022-10-04T10:18:02.581Z,38.40
2022-10-04T10:20:47.920Z,38.08
2022-10-04T10:24:02.554Z,43.35
2022-10-04T10:26:58.000Z,44.80
2022-10-04T10:29:36.562Z,43.58
2022-10-04T10:32:19.125Z,40.28
2022-10-04T10:35:08.707Z,36.10
2022-10-04T10:37:45.699Z,41.90
2022-10-04T10:40:21.295Z,38.75
2022-10-04T10:43:07.992Z,35.90
2022-10-04T10:45:49.734Z,42.17
2022-10-04T10:48:33.542Z,42.28
2022-10-04T10:51:38.175Z,37.00
2022-10-04T10:54:42.584Z,38.88
2022-10-04T10:57:34.053Z,37.05
2022-10-04T11:00:18.173Z,37.08
2022-10-04T11:03:22.686Z,38.72
2022-10-04T11:06:07.233Z,41.42
2022-10-04T11:08:53.060Z,38.20
2022-10-04T11:11:34.765Z,38.33
2022-10-04T11:14:29.062Z,32.58
2022-10-04T11:16:56.710Z,32.85
2022-10-04T11:20:16.678Z,31.98
2022-10-04T11:23:02.043Z,30.75
2022-10-04T11:25:52.765Z,33.45
2022-10-04T11:28:56.723Z,35.78
2022-10-04T11:31:41.295Z,36.38
2022-10-04T11:34:22.855Z,35.28
2022-10-04T11:37:20.638Z,32.03
2022-10-04T11:40:55.399Z,33.95
2022-10-04T11:43:55.552Z,34.92
2022-10-04T11:46:37.097Z,35.40
2022-10-04T11:49:16.758Z,36.05
2022-10-04T11:52:20.799Z,31.92
2022-10-04T11:54:57.197Z,33.65
2022-10-04T11:57:36.677Z,33.17
2022-10-04T12:00:25.891Z,32.45
2022-10-04T12:03:16.063Z,31.20
2022-10-04T12:05:48.887Z,31.47
2022-10-04T12:08:37.359Z,35.60
2022-10-04T12:11:15.965Z,33.20
2022-10-04T12:14:04.031Z,34.58
2022-10-04T12:16:57.057Z,33.13
2022-10-04T12:19:32.446Z,31.38
2022-10-04T12:22:17.319Z,37.15
2022-10-04T12:25:12.906Z,32.38
2022-10-04T12:27:51.241Z,33.35
2022-10-04T12:30:36.752Z,34.85
2022-10-04T12:33:26.090Z,31.35
2022-10-04T12:36:08.343Z,30.15
2022-10-04T12:38:56.423Z,31.60
2022-10-04T12:41:35.948Z,28.10
2022-10-04T12:44:13.150Z,31.33
2022-10-04T12:46:59.952Z,33.45
2022-10-04T12:49:56.343Z,32.08
2022-10-04T12:52:27.064Z,31.35
2022-10-04T12:54:53.401Z,32.17
2022-10-04T12:57:20.159Z,29.17
2022-10-04T13:00:00.001Z,31.60
2022-10-04T13:02:57.353Z,35.70
2022-10-04T13:05:32.788Z,27.60
2022-10-04T13:08:15.654Z,33.75
2022-10-04T13:10:47.839Z,32.83
2022-10-04T13:13:36.060Z,35.85
2022-10-04T13:19:24.006Z,28.42
2022-10-04T13:21:58.860Z,27.50
2022-10-04T13:24:54.060Z,28.77
2022-10-04T13:27:38.398Z,29.52
2022-10-04T13:30:07.119Z,28.45
2022-10-04T13:33:14.153Z,30.20
2022-10-04T13:36:06.824Z,32.85
2022-10-04T13:38:54.343Z,28.50
2022-10-04T13:41:29.813Z,27.70
2022-10-04T13:44:15.260Z,28.17
2022-10-04T13:47:06.130Z,27.38
2022-10-04T13:49:34.657Z,34.65
2022-10-04T13:52:28.559Z,35.80
2022-10-04T13:55:23.296Z,28.60
2022-10-04T13:57:57.902Z,28.17
2022-10-04T14:01:01.795Z,30.92
2022-10-04T14:03:40.575Z,26.95
2022-10-04T14:06:34.619Z,26.17
2022-10-04T14:09:19.379Z,29.83
2022-10-04T14:12:04.114Z,29.27
2022-10-04T14:15:12.174Z,34.88
2022-10-04T14:17:56.798Z,30.40
2022-10-04T14:20:29.312Z,29.80
2022-10-04T14:22:58.726Z,30.85
2022-10-04T14:26:15.830Z,27.85
2022-10-04T14:28:52.991Z,31.63
2022-10-04T14:31:47.048Z,39.60
2022-10-04T14:34:47.528Z,27.20
2022-10-04T14:37:36.808Z,31.33
2022-10-04T14:40:18.479Z,25.90
2022-10-04T14:42:47.969Z,28.63
2022-10-04T14:45:43.528Z,27.98
2022-10-04T14:48:30.198Z,31.95
2022-10-04T14:51:28.729Z,28.35
2022-10-04T14:54:22.296Z,30.50
2022-10-04T14:57:01.706Z,27.85
2022-10-04T15:00:06.796Z,29.85
2022-10-04T15:02:33.162Z,29.63
2022-10-04T15:05:06.166Z,31.92
2022-10-04T15:07:37.421Z,33.15
2022-10-04T15:10:03.954Z,30.85
2022-10-04T15:12:52.001Z,35.80
2022-10-04T15:15:19.178Z,31.05
2022-10-04T15:17:51.285Z,29.25
2022-10-04T15:20:54.137Z,31.50
2022-10-04T15:23:38.660Z,27.95
2022-10-04T15:26:19.936Z,29.95
2022-10-04T15:28:48.914Z,29.42
2022-10-04T15:31:27.275Z,32.42
2022-10-04T15:34:03.129Z,36.58
2022-10-04T15:36:52.700Z,30.40
2022-10-04T15:39:58.720Z,33.67
2022-10-04T15:42:37.027Z,26.20
2022-10-04T15:45:18.684Z,34.08
2022-10-04T15:48:11.698Z,31.05
2022-10-04T15:50:59.595Z,30.27
2022-10-04T15:53:50.289Z,33.85
2022-10-04T15:56:33.119Z,26.83
2022-10-04T15:58:59.471Z,27.42
2022-10-04T16:01:55.087Z,27.10
2022-10-04T16:04:33.197Z,26.10
2022-10-04T16:07:41.086Z,27.35
2022-10-04T16:10:39.423Z,24.83
2022-10-04T16:13:56.971Z,27.58
2022-10-04T16:16:29.054Z,25.80
2022-10-04T16:19:20.087Z,27.55
2022-10-04T16:24:22.021Z,24.10
2022-10-04T16:26:50.989Z,29.00
2022-10-04T16:29:28.012Z,25.98
2022-10-04T16:32:21.298Z,26.95
2022-10-04T16:35:03.298Z,32.85
2022-10-04T16:37:57.605Z,28.25
2022-10-04T16:40:30.152Z,30.17
2022-10-04T16:43:01.856Z,30.08
2022-10-04T16:45:48.651Z,26.25
2022-10-04T16:48:30.145Z,26.58
2022-10-04T16:51:04.932Z,30.15
2022-10-04T16:54:05.840Z,28.55
2022-10-04T16:56:56.391Z,31.77
2022-10-04T17:00:07.482Z,28.70
2022-10-04T17:02:49.121Z,26.50
2022-10-04T17:05:35.846Z,26.55
2022-10-04T17:08:17.810Z,26.08
2022-10-04T17:10:49.908Z,29.42
2022-10-04T17:13:21.028Z,25.92
2022-10-04T17:16:07.536Z,25.38
2022-10-04T17:18:55.404Z,25.83
2022-10-04T17:21:32.758Z,26.48
2022-10-04T17:24:10.169Z,26.50
2022-10-04T17:27:00.813Z,31.60
2022-10-04T17:29:36.949Z,27.60
2022-10-04T17:32:03.272Z,31.52
2022-10-04T17:34:36.177Z,26.33
2022-10-04T17:37:06.076Z,32.92
2022-10-04T17:39:47.083Z,35.38
2022-10-04T17:42:31.864Z,32.53
2022-10-04T17:45:16.977Z,29.98
2022-10-04T17:48:19.036Z,32.25
2022-10-04T17:51:39.345Z,32.90
2022-10-04T17:54:39.330Z,36.10
2022-10-04T17:57:05.673Z,31.23
2022-10-04T17:59:47.890Z,35.28
2022-10-04T18:02:42.052Z,35.35
2022-10-04T18:05:26.822Z,28.55
2022-10-04T18:08:08.018Z,41.65
2022-10-04T18:10:52.873Z,36.92
2022-10-04T18:13:27.875Z,33.45
2022-10-04T18:15:57.268Z,35.65
2022-10-04T18:18:29.166Z,38.13
2022-10-04T18:20:55.481Z,34.65
2022-10-04T18:23:28.276Z,32.80
2022-10-04T18:25:59.511Z,31.40
2022-10-04T18:28:26.007Z,35.05
2022-10-04T18:30:52.448Z,31.02
2022-10-04T18:33:26.625Z,29.20
2022-10-04T18:35:59.448Z,30.55
2022-10-04T18:38:41.044Z,32.42
2022-10-04T18:41:18.991Z,31.20
2022-10-04T18:44:04.838Z,30.90
2022-10-04T18:46:39.797Z,30.58
2022-10-04T18:49:16.888Z,35.45
2022-10-04T18:52:10.703Z,34.95
2022-10-04T18:54:58.904Z,31.35
2022-10-04T18:57:56.435Z,32.08
2022-10-04T19:00:41.656Z,38.30
2022-10-04T19:03:45.004Z,34.58
2022-10-04T19:06:20.923Z,35.03
2022-10-04T19:09:09.044Z,43.35
2022-10-04T19:11:51.800Z,43.92
2022-10-04T19:14:26.024Z,36.80
2022-10-04T19:16:57.007Z,40.90
2022-10-04T19:22:35.037Z,41.80
2022-10-04T19:25:07.645Z,37.67
2022-10-04T19:27:45.157Z,38.45
2022-10-04T19:30:25.216Z,46.53
2022-10-04T19:33:11.648Z,41.60
2022-10-04T19:36:06.037Z,43.35
2022-10-04T19:38:57.373Z,37.47
2022-10-04T19:41:51.232Z,42.78
2022-10-04T19:45:19.369Z,43.85
2022-10-04T19:47:58.600Z,43.42
2022-10-04T19:51:04.425Z,40.75
2022-10-04T19:53:45.173Z,44.95
2022-10-04T19:56:23.741Z,48.60
2022-10-04T19:59:09.154Z,41.92
2022-10-04T20:01:36.486Z,42.92
2022-10-04T20:04:30.278Z,40.47
2022-10-04T20:06:58.672Z,54.42
2022-10-04T20:09:36.964Z,45.65
2022-10-04T20:12:05.958Z,46.35
2022-10-04T20:14:32.365Z,49.65
2022-10-04T20:17:00.690Z,48.03
2022-10-04T20:19:27.047Z,47.75
2022-10-04T20:22:13.862Z,49.20
2022-10-04T20:24:40.259Z,42.83
2022-10-04T20:27:21.927Z,53.83
2022-10-04T20:29:51.714Z,48.30
2022-10-04T20:32:26.910Z,43.53
2022-10-04T20:34:54.986Z,45.20
2022-10-04T20:37:21.728Z,51.97
2022-10-04T20:39:48.058Z,43.13
2022-10-04T20:42:33.541Z,43.75
2022-10-04T20:45:08.993Z,47.70
2022-10-04T20:47:39.313Z,38.47
2022-10-04T20:50:08.020Z,41.30
2022-10-04T20:52:36.841Z,43.15
2022-10-04T20:55:15.480Z,38.08
2022-10-04T20:57:41.920Z,39.00
2022-10-04T21:00:18.357Z,43.55
2022-10-04T21:02:44.839Z,38.83
2022-10-04T21:05:17.392Z,42.50
2022-10-04T21:07:43.812Z,40.70
2022-10-04T21:10:20.218Z,42.90
2022-10-04T21:12:47.182Z,43.85
2022-10-04T21:15:16.637Z,41.38
2022-10-04T21:18:07.164Z,42.95
2022-10-04T21:20:49.434Z,44.50
2022-10-04T21:23:18.568Z,43.13
2022-10-04T21:25:45.066Z,46.90
2022-10-04T21:28:29.990Z,49.05
2022-10-04T21:30:56.608Z,46.50
2022-10-04T21:33:23.011Z,45.92
2022-10-04T21:35:51.486Z,45.88
2022-10-04T21:38:18.668Z,51.13
2022-10-04T21:40:45.194Z,44.47
2022-10-04T21:43:11.686Z,49.35
2022-10-04T21:45:38.132Z,47.88
2022-10-04T21:48:04.553Z,59.00
2022-10-04T21:50:30.972Z,55.10
2022-10-04T21:52:59.617Z,49.90
2022-10-04T21:55:26.031Z,56.15
2022-10-04T21:57:52.423Z,52.22
2022-10-04T22:00:18.949Z,61.28
2022-10-04T22:02:45.441Z,56.75
2022-10-04T22:05:11.922Z,61.55
2022-10-04T22:07:38.383Z,59.63
2022-10-04T22:10:05.300Z,61.35
2022-10-04T22:12:31.723Z,63.58
2022-10-04T22:14:58.133Z,66.65
2022-10-04T22:17:24.619Z,67.32
2022-10-04T22:19:52.895Z,62.08
2022-10-04T22:22:19.352Z,62.30
2022-10-04T22:24:45.749Z,61.75
2022-10-04T22:27:17.366Z,64.55
2022-10-04T22:29:44.796Z,63.08
2022-10-04T22:32:26.049Z,59.10
2022-10-04T22:37:29.701Z,59.33
2022-10-04T22:39:56.141Z,63.80
2022-10-04T22:42:27.640Z,57.45
2022-10-04T22:44:54.095Z,54.40
2022-10-04T22:47:20.532Z,62.53
2022-10-04T22:49:49.885Z,58.90
2022-10-04T22:52:17.992Z,57.35
2022-10-04T22:54:47.000Z,59.40
2022-10-04T22:57:15.509Z,59.15
2022-10-04T22:59:44.979Z,60.30
2022-10-04T23:02:15.761Z,62.45
2022-10-04T23:04:45.782Z,60.17
2022-10-04T23:07:12.227Z,56.10
2022-10-04T23:09:38.642Z,54.92
2022-10-04T23:12:08.596Z,57.58
2022-10-04T23:14:38.951Z,52.20
2022-10-04T23:17:23.478Z,57.25
2022-10-04T23:19:52.833Z,55.30
2022-10-04T23:22:25.557Z,56.70
2022-10-04T23:24:52.296Z,54.78
2022-10-04T23:27:18.768Z,53.67
2022-10-04T23:29:49.479Z,52.00
2022-10-04T23:32:18.587Z,55.47
2022-10-04T23:34:47.959Z,49.25
2022-10-04T23:37:24.093Z,53.63
2022-10-04T23:39:51.109Z,58.80
2022-10-04T23:42:31.874Z,50.08
2022-10-04T23:45:00.014Z,47.63
2022-10-04T23:47:34.914Z,50.67
2022-10-04T23:50:01.973Z,56.17
2022-10-04T23:52:37.125Z,48.40
2022-10-04T23:55:18.485Z,49.15
2022-10-04T23:57:45.058Z,45.50
